createdAt,value
2023-03-26T00:00:48.822Z,98.33
2023-03-26T00:01:48.837Z,98.44
2023-03-26T00:02:48.797Z,98.65
2023-03-26T00:03:48.772Z,98.33
2023-03-26T00:04:48.749Z,98.54
2023-03-26T00:05:48.788Z,98.44
2023-03-26T00:06:48.764Z,98.96
2023-03-26T00:07:48.742Z,98.23
2023-03-26T00:08:48.717Z,98.07
2023-03-26T00:09:48.712Z,97.92
2023-03-26T00:10:48.719Z,98.02
2023-03-26T00:11:48.683Z,98.44
2023-03-26T00:12:48.681Z,98.54
2023-03-26T00:13:48.665Z,98.54
2023-03-26T00:14:48.649Z,98.23
2023-03-26T00:15:48.657Z,98.54
2023-03-26T00:16:48.677Z,98.75
2023-03-26T00:17:48.657Z,98.54
2023-03-26T00:18:48.644Z,98.54
2023-03-26T00:19:48.605Z,98.02
2023-03-26T00:20:48.631Z,98.23
2023-03-26T00:21:48.588Z,98.85
2023-03-26T00:22:48.556Z,98.75
2023-03-26T00:23:48.575Z,98.33
2023-03-26T00:24:48.547Z,98.44
2023-03-26T00:25:49.541Z,98.54
2023-03-26T00:26:48.589Z,98.54
2023-03-26T00:27:48.515Z,98.54
2023-03-26T00:28:48.514Z,98.50
2023-03-26T00:29:48.510Z,98.33
2023-03-26T00:30:48.544Z,98.65
2023-03-26T00:31:48.475Z,98.44
2023-03-26T00:32:53.496Z,98.29
2023-03-26T00:33:49.445Z,98.13
2023-03-26T00:34:48.436Z,97.98
2023-03-26T00:35:48.458Z,97.88
2023-03-26T00:36:48.429Z,97.67
2023-03-26T00:37:48.410Z,97.56
2023-03-26T00:38:48.405Z,97.67
2023-03-26T00:39:48.383Z,98.19
2023-03-26T00:40:48.404Z,97.77
2023-03-26T00:41:48.381Z,97.77
2023-03-26T00:42:48.371Z,97.77
2023-03-26T00:43:48.356Z,97.67
2023-03-26T00:44:48.339Z,97.56
2023-03-26T00:45:48.385Z,97.77
2023-03-26T00:46:48.322Z,98.19
2023-03-26T00:47:48.343Z,97.36
2023-03-26T00:48:48.314Z,97.36
2023-03-26T00:49:48.317Z,97.47
2023-03-26T00:50:48.299Z,97.67
2023-03-26T00:51:48.274Z,97.36
2023-03-26T00:52:48.259Z,97.67
2023-03-26T00:53:48.253Z,97.36
2023-03-26T00:54:48.252Z,97.26
2023-03-26T00:55:48.240Z,97.26
2023-03-26T00:56:48.348Z,97.98
2023-03-26T00:57:48.206Z,97.56
2023-03-26T00:58:48.217Z,97.47
2023-03-26T00:59:48.183Z,97.16
2023-03-26T01:00:48.209Z,97.51
2023-03-26T01:01:48.195Z,97.20
2023-03-26T01:02:48.227Z,97.67
2023-03-26T01:04:04.801Z,97.47
2023-03-26T01:04:50.147Z,97.56
2023-03-26T01:05:48.121Z,97.30
2023-03-26T01:06:48.142Z,97.36
2023-03-26T01:07:48.101Z,97.16
2023-03-26T01:08:48.128Z,97.20
2023-03-26T01:09:48.076Z,97.26
2023-03-26T01:10:48.060Z,96.99
2023-03-26T01:11:48.097Z,97.41
2023-03-26T01:12:48.058Z,97.36
2023-03-26T01:13:48.033Z,96.64
2023-03-26T01:14:48.625Z,96.99
2023-03-26T01:15:48.076Z,96.64
2023-03-26T01:16:48.020Z,96.74
2023-03-26T01:17:48.011Z,96.89
2023-03-26T01:18:47.981Z,96.74
2023-03-26T01:19:47.978Z,96.84
2023-03-26T01:20:47.956Z,96.95
2023-03-26T01:21:48.004Z,97.16
2023-03-26T01:22:47.949Z,97.16
2023-03-26T01:23:47.957Z,97.16
2023-03-26T01:24:47.929Z,96.84
2023-03-26T01:25:47.921Z,96.74
2023-03-26T01:26:47.939Z,96.95
2023-03-26T01:27:47.900Z,96.64
2023-03-26T01:28:47.892Z,96.74
2023-03-26T01:29:47.861Z,96.84
2023-03-26T01:30:47.850Z,96.74
2023-03-26T01:31:47.875Z,96.64
2023-03-26T01:32:47.919Z,96.95
2023-03-26T01:33:47.838Z,96.95
2023-03-26T01:34:47.811Z,96.74
2023-03-26T01:35:47.827Z,96.84
2023-03-26T01:36:47.830Z,96.64
2023-03-26T01:37:47.784Z,96.74
2023-03-26T01:38:47.770Z,96.37
2023-03-26T01:39:47.744Z,95.86
2023-03-26T01:40:47.739Z,96.06
2023-03-26T01:41:47.779Z,96.06
2023-03-26T01:42:47.719Z,95.96
2023-03-26T01:43:47.707Z,96.17
2023-03-26T01:44:47.694Z,95.76
2023-03-26T01:45:47.703Z,96.11
2023-03-26T01:46:47.738Z,95.86
2023-03-26T01:47:47.726Z,96.01
2023-03-26T01:48:47.649Z,95.90
2023-03-26T01:49:47.660Z,96.21
2023-03-26T01:50:47.629Z,96.11
2023-03-26T01:51:47.678Z,95.49
2023-03-26T01:52:47.608Z,95.34
2023-03-26T01:53:47.607Z,95.65
2023-03-26T01:54:47.597Z,95.49
2023-03-26T01:55:47.583Z,95.45
2023-03-26T01:56:47.623Z,95.39
2023-03-26T01:57:47.563Z,95.65
2023-03-26T01:58:47.573Z,95.70
2023-03-26T01:59:47.549Z,95.70
2023-03-26T02:00:47.542Z,95.49
2023-03-26T02:01:47.594Z,95.34
2023-03-26T02:02:47.602Z,95.65
2023-03-26T02:03:47.536Z,95.70
2023-03-26T02:04:47.485Z,95.86
2023-03-26T02:05:47.490Z,95.86
2023-03-26T02:06:47.515Z,95.76
2023-03-26T02:07:47.465Z,95.80
2023-03-26T02:08:47.464Z,95.86
2023-03-26T02:09:47.452Z,95.80
2023-03-26T02:10:47.425Z,96.11
2023-03-26T02:11:47.447Z,96.01
2023-03-26T02:12:47.412Z,96.01
2023-03-26T02:13:47.401Z,96.01
2023-03-26T02:14:47.420Z,95.70
2023-03-26T02:15:47.454Z,95.90
2023-03-26T02:16:47.394Z,95.90
2023-03-26T02:17:47.356Z,95.70
2023-03-26T02:18:47.373Z,96.01
2023-03-26T02:19:47.324Z,95.49
2023-03-26T02:20:47.328Z,95.70
2023-03-26T02:21:47.333Z,95.39
2023-03-26T02:22:47.296Z,95.49
2023-03-26T02:23:47.340Z,95.49
2023-03-26T02:24:47.274Z,95.34
2023-03-26T02:25:47.267Z,95.28
2023-03-26T02:26:47.293Z,95.28
2023-03-26T02:27:47.233Z,95.18
2023-03-26T02:28:47.235Z,95.18
2023-03-26T02:29:47.215Z,94.97
2023-03-26T02:30:47.209Z,94.77
2023-03-26T02:31:47.244Z,94.46
2023-03-26T02:32:47.222Z,94.46
2023-03-26T02:33:47.181Z,94.46
2023-03-26T02:34:47.188Z,94.35
2023-03-26T02:35:47.244Z,94.56
2023-03-26T02:36:47.213Z,94.87
2023-03-26T02:37:47.172Z,94.77
2023-03-26T02:38:47.130Z,94.77
2023-03-26T02:39:47.102Z,94.77
2023-03-26T02:40:47.095Z,94.56
2023-03-26T02:41:47.089Z,94.77
2023-03-26T02:42:47.097Z,94.92
2023-03-26T02:43:47.063Z,94.87
2023-03-26T02:44:47.079Z,94.97
2023-03-26T02:45:47.099Z,94.92
2023-03-26T02:46:47.043Z,94.87
2023-03-26T02:47:47.041Z,94.77
2023-03-26T02:48:47.027Z,94.77
2023-03-26T02:49:47.053Z,94.71
2023-03-26T02:50:46.989Z,94.67
2023-03-26T02:51:46.989Z,94.77
2023-03-26T02:52:46.997Z,94.87
2023-03-26T02:53:46.958Z,94.92
2023-03-26T02:54:46.950Z,94.87
2023-03-26T02:55:46.932Z,94.77
2023-03-26T02:56:46.937Z,94.77
2023-03-26T02:57:46.984Z,94.67
2023-03-26T02:58:46.944Z,94.97
2023-03-26T02:59:46.916Z,94.87
2023-03-26T03:00:46.952Z,94.77
2023-03-26T03:01:46.892Z,94.77
2023-03-26T03:02:46.950Z,94.67
2023-03-26T03:03:46.855Z,94.77
2023-03-26T03:04:46.836Z,94.87
2023-03-26T03:05:46.831Z,94.87
2023-03-26T03:06:46.821Z,94.77
2023-03-26T03:07:46.855Z,94.77
2023-03-26T03:08:46.815Z,94.97
2023-03-26T03:09:46.785Z,94.56
2023-03-26T03:10:46.771Z,94.77
2023-03-26T03:11:46.763Z,94.56
2023-03-26T03:12:46.786Z,94.04
2023-03-26T03:13:47.002Z,94.77
2023-03-26T03:14:46.732Z,94.15
2023-03-26T03:15:46.728Z,94.87
2023-03-26T03:16:46.729Z,94.77
2023-03-26T03:17:46.750Z,94.87
2023-03-26T03:18:46.693Z,94.82
2023-03-26T03:19:46.697Z,94.52
2023-03-26T03:20:46.698Z,94.35
2023-03-26T03:21:47.654Z,94.62
2023-03-26T03:22:46.684Z,94.46
2023-03-26T03:23:46.639Z,94.56
2023-03-26T03:24:46.631Z,94.97
2023-03-26T03:25:46.629Z,94.77
2023-03-26T03:26:46.604Z,95.12
2023-03-26T03:27:46.602Z,95.18
2023-03-26T03:28:46.587Z,94.97
2023-03-26T03:29:46.589Z,95.07
2023-03-26T03:30:46.615Z,95.18
2023-03-26T03:31:46.554Z,94.87
2023-03-26T03:32:46.603Z,95.18
2023-03-26T03:33:46.605Z,94.97
2023-03-26T03:34:46.517Z,95.28
2023-03-26T03:35:46.522Z,95.24
2023-03-26T03:36:46.503Z,95.07
2023-03-26T03:37:46.517Z,95.24
2023-03-26T03:38:46.479Z,95.45
2023-03-26T03:39:46.461Z,95.55
2023-03-26T03:40:46.449Z,95.24
2023-03-26T03:41:46.437Z,95.24
2023-03-26T03:42:46.468Z,94.97
2023-03-26T03:43:46.414Z,95.14
2023-03-26T03:44:46.414Z,94.67
2023-03-26T03:45:46.436Z,95.39
2023-03-26T03:46:46.405Z,95.39
2023-03-26T03:47:46.471Z,95.28
2023-03-26T03:48:46.371Z,95.28
2023-03-26T03:49:46.358Z,95.55
2023-03-26T03:50:46.347Z,95.24
2023-03-26T03:51:46.356Z,95.49
2023-03-26T03:52:46.336Z,95.14
2023-03-26T03:53:46.306Z,95.34
2023-03-26T03:54:46.304Z,95.39
2023-03-26T03:55:46.293Z,95.14
2023-03-26T03:56:46.282Z,95.34
2023-03-26T03:57:46.300Z,95.24
2023-03-26T03:58:46.279Z,95.24
2023-03-26T03:59:47.850Z,95.24
2023-03-26T04:00:46.243Z,95.34
2023-03-26T04:01:46.227Z,95.45
2023-03-26T04:02:46.371Z,95.34
2023-03-26T04:03:46.923Z,95.24
2023-03-26T04:04:46.199Z,94.93
2023-03-26T04:05:46.207Z,95.55
2023-03-26T04:06:46.185Z,95.45
2023-03-26T04:07:46.163Z,95.24
2023-03-26T04:08:46.215Z,95.45
2023-03-26T04:09:46.145Z,95.40
2023-03-26T04:10:46.133Z,95.20
2023-03-26T04:11:46.151Z,94.99
2023-03-26T04:12:46.109Z,94.99
2023-03-26T04:13:46.130Z,95.24
2023-03-26T04:14:46.101Z,95.14
2023-03-26T04:15:46.126Z,94.78
2023-03-26T04:16:46.082Z,95.20
2023-03-26T04:17:46.092Z,95.45
2023-03-26T04:18:46.138Z,95.09
2023-03-26T04:19:46.038Z,94.72
2023-03-26T04:20:46.026Z,94.99
2023-03-26T04:21:46.015Z,94.78
2023-03-26T04:22:46.009Z,94.68
2023-03-26T04:23:46.017Z,95.24
2023-03-26T04:24:45.989Z,95.24
2023-03-26T04:25:45.984Z,95.20
2023-03-26T04:26:45.958Z,94.72
2023-03-26T04:27:45.945Z,95.03
2023-03-26T04:28:45.971Z,95.20
2023-03-26T04:29:45.968Z,95.20
2023-03-26T04:30:45.946Z,95.24
2023-03-26T04:31:45.940Z,94.72
2023-03-26T04:32:45.937Z,94.72
2023-03-26T04:34:12.282Z,95.09
2023-03-26T04:34:45.874Z,94.93
2023-03-26T04:35:45.915Z,94.93
2023-03-26T04:36:45.853Z,95.03
2023-03-26T04:37:45.862Z,94.57
2023-03-26T04:38:45.852Z,94.72
2023-03-26T04:39:45.830Z,94.72
2023-03-26T04:40:45.803Z,94.47
2023-03-26T04:41:45.797Z,94.31
2023-03-26T04:42:45.796Z,94.62
2023-03-26T04:43:45.806Z,94.57
2023-03-26T04:44:45.770Z,94.72
2023-03-26T04:45:45.762Z,94.57
2023-03-26T04:46:45.780Z,94.31
2023-03-26T04:47:45.769Z,94.52
2023-03-26T04:48:45.746Z,94.57
2023-03-26T04:49:45.713Z,94.68
2023-03-26T04:50:45.693Z,94.78
2023-03-26T04:51:45.689Z,94.52
2023-03-26T04:52:45.733Z,94.42
2023-03-26T04:53:45.710Z,94.52
2023-03-26T04:54:45.644Z,94.42
2023-03-26T04:55:45.632Z,94.52
2023-03-26T04:56:45.684Z,94.42
2023-03-26T04:57:45.621Z,94.62
2023-03-26T04:58:45.633Z,94.72
2023-03-26T04:59:45.612Z,94.62
2023-03-26T05:00:45.599Z,94.82
2023-03-26T05:01:45.604Z,95.03
2023-03-26T05:02:45.637Z,95.24
2023-03-26T05:03:45.686Z,95.03
2023-03-26T05:04:45.843Z,95.03
2023-03-26T05:05:45.529Z,95.24
2023-03-26T05:06:45.522Z,95.24
2023-03-26T05:07:45.505Z,95.03
2023-03-26T05:08:45.564Z,95.03
2023-03-26T05:09:45.497Z,95.03
2023-03-26T05:10:45.487Z,94.93
2023-03-26T05:11:45.472Z,94.93
2023-03-26T05:12:45.452Z,94.87
2023-03-26T05:13:45.464Z,94.87
2023-03-26T05:14:45.429Z,95.14
2023-03-26T05:15:45.420Z,95.07
2023-03-26T05:16:45.440Z,95.49
2023-03-26T05:17:45.400Z,95.18
2023-03-26T05:18:45.381Z,95.28
2023-03-26T05:19:45.379Z,95.39
2023-03-26T05:20:45.356Z,94.62
2023-03-26T05:21:45.381Z,95.49
2023-03-26T05:22:45.332Z,95.28
2023-03-26T05:23:45.349Z,95.28
2023-03-26T05:24:45.322Z,94.97
2023-03-26T05:25:45.296Z,95.07
2023-03-26T05:26:45.292Z,94.87
2023-03-26T05:27:45.278Z,94.97
2023-03-26T05:28:45.289Z,95.18
2023-03-26T05:29:45.270Z,94.97
2023-03-26T05:30:45.244Z,95.28
2023-03-26T05:31:45.235Z,94.97
2023-03-26T05:32:45.380Z,94.87
2023-03-26T05:33:45.281Z,94.62
2023-03-26T05:34:45.208Z,94.97
2023-03-26T05:35:45.252Z,94.87
2023-03-26T05:36:45.191Z,95.07
2023-03-26T05:37:45.170Z,95.45
2023-03-26T05:38:45.189Z,95.39
2023-03-26T05:39:45.151Z,95.45
2023-03-26T05:40:45.143Z,95.34
2023-03-26T05:41:45.126Z,95.39
2023-03-26T05:42:45.119Z,94.93
2023-03-26T05:43:45.166Z,94.97
2023-03-26T05:44:45.107Z,95.14
2023-03-26T05:45:45.125Z,95.18
2023-03-26T05:46:45.068Z,95.59
2023-03-26T05:47:45.096Z,95.59
2023-03-26T05:48:45.071Z,95.49
2023-03-26T05:49:45.036Z,95.65
2023-03-26T05:50:45.039Z,95.59
2023-03-26T05:51:45.017Z,95.55
2023-03-26T05:52:45.004Z,95.45
2023-03-26T05:53:45.011Z,95.34
2023-03-26T05:54:44.988Z,94.93
2023-03-26T05:55:45.012Z,95.34
2023-03-26T05:56:45.021Z,95.45
2023-03-26T05:57:44.960Z,95.45
2023-03-26T05:58:44.992Z,95.45
2023-03-26T05:59:44.923Z,95.45
2023-03-26T06:00:44.914Z,95.14
2023-03-26T06:01:44.937Z,95.24
2023-03-26T06:02:44.938Z,95.03
2023-03-26T06:03:45.214Z,95.34
2023-03-26T06:04:44.971Z,95.28
2023-03-26T06:05:44.886Z,95.24
2023-03-26T06:06:44.898Z,95.24
2023-03-26T06:07:44.851Z,95.28
2023-03-26T06:08:44.867Z,95.39
2023-03-26T06:09:44.832Z,95.24
2023-03-26T06:10:44.819Z,95.24
2023-03-26T06:11:44.862Z,95.49
2023-03-26T06:12:44.814Z,95.49
2023-03-26T06:13:44.776Z,95.49
2023-03-26T06:14:44.768Z,95.39
2023-03-26T06:15:44.801Z,95.24
2023-03-26T06:16:44.778Z,95.45
2023-03-26T06:17:44.796Z,95.14
2023-03-26T06:18:44.783Z,94.97
2023-03-26T06:19:44.718Z,95.03
2023-03-26T06:20:44.712Z,95.24
2023-03-26T06:21:44.701Z,94.93
2023-03-26T06:22:44.681Z,95.14
2023-03-26T06:23:44.712Z,95.03
2023-03-26T06:24:44.664Z,95.03
2023-03-26T06:25:44.647Z,95.14
2023-03-26T06:26:44.637Z,95.14
2023-03-26T06:27:44.626Z,95.14
2023-03-26T06:28:44.664Z,94.68
2023-03-26T06:29:44.617Z,95.09
2023-03-26T06:30:44.605Z,94.78
2023-03-26T06:31:44.678Z,94.74
2023-03-26T06:32:44.588Z,94.57
2023-03-26T06:33:44.593Z,94.27
2023-03-26T06:34:44.557Z,94.43
2023-03-26T06:35:44.569Z,94.74
2023-03-26T06:36:44.537Z,94.68
2023-03-26T06:37:44.558Z,94.68
2023-03-26T06:38:44.546Z,94.68
2023-03-26T06:39:44.502Z,94.57
2023-03-26T06:40:44.503Z,94.57
2023-03-26T06:41:44.499Z,94.74
2023-03-26T06:43:08.175Z,94.74
2023-03-26T06:43:45.499Z,94.64
2023-03-26T06:44:44.447Z,94.84
2023-03-26T06:45:44.459Z,94.28
2023-03-26T06:46:44.446Z,93.98
2023-03-26T06:47:44.478Z,93.91
2023-03-26T06:48:44.445Z,93.98
2023-03-26T06:49:45.396Z,93.77
2023-03-26T06:50:45.390Z,93.56
2023-03-26T06:51:44.376Z,93.35
2023-03-26T06:52:44.371Z,93.56
2023-03-26T06:53:44.393Z,93.66
2023-03-26T06:54:44.350Z,93.21
2023-03-26T06:55:44.339Z,93.15
2023-03-26T06:56:44.382Z,93.11
2023-03-26T06:57:44.322Z,92.69
2023-03-26T06:58:44.308Z,92.49
2023-03-26T06:59:44.318Z,92.38
2023-03-26T07:00:44.315Z,92.34
2023-03-26T07:01:45.879Z,92.24
2023-03-26T07:02:44.306Z,92.65
2023-03-26T07:03:44.276Z,92.71
2023-03-26T07:04:44.265Z,92.40
2023-03-26T07:05:44.238Z,91.74
2023-03-26T07:06:44.232Z,91.33
2023-03-26T07:07:46.294Z,91.44
2023-03-26T07:08:44.223Z,90.92
2023-03-26T07:09:44.214Z,90.92
2023-03-26T07:10:44.195Z,91.29
2023-03-26T07:11:44.182Z,90.47
2023-03-26T07:12:44.175Z,90.36
2023-03-26T07:13:44.157Z,90.26
2023-03-26T07:14:44.178Z,90.16
2023-03-26T07:15:44.159Z,90.26
2023-03-26T07:16:44.194Z,89.64
2023-03-26T07:17:44.152Z,89.23
2023-03-26T07:18:44.103Z,88.86
2023-03-26T07:19:44.128Z,88.72
2023-03-26T07:20:44.090Z,88.96
2023-03-26T07:21:44.090Z,88.76
2023-03-26T07:22:44.070Z,88.62
2023-03-26T07:23:44.064Z,88.51
2023-03-26T07:24:44.140Z,88.56
2023-03-26T07:25:44.041Z,88.35
2023-03-26T07:26:44.085Z,88.66
2023-03-26T07:27:44.024Z,88.10
2023-03-26T07:28:44.013Z,88.20
2023-03-26T07:29:45.029Z,88.31
2023-03-26T07:30:44.009Z,88.41
2023-03-26T07:31:43.992Z,88.62
2023-03-26T07:32:44.042Z,88.00
2023-03-26T07:33:43.961Z,88.00
2023-03-26T07:34:43.982Z,87.90
2023-03-26T07:35:44.042Z,88.00
2023-03-26T07:36:43.926Z,87.55
2023-03-26T07:37:44.097Z,87.24
2023-03-26T07:38:43.927Z,86.83
2023-03-26T07:39:43.933Z,87.04
2023-03-26T07:40:43.934Z,87.13
2023-03-26T07:41:43.887Z,86.93
2023-03-26T07:42:43.877Z,87.45
2023-03-26T07:43:44.000Z,86.68
2023-03-26T07:44:43.870Z,86.58
2023-03-26T07:45:43.914Z,86.27
2023-03-26T07:46:43.821Z,86.48
2023-03-26T07:47:43.827Z,86.79
2023-03-26T07:48:43.808Z,86.48
2023-03-26T07:49:43.826Z,86.27
2023-03-26T07:50:43.806Z,86.17
2023-03-26T07:51:43.781Z,85.46
2023-03-26T07:52:43.775Z,85.97
2023-03-26T07:53:43.773Z,85.97
2023-03-26T07:54:43.798Z,85.76
2023-03-26T07:55:43.755Z,85.25
2023-03-26T07:56:43.836Z,85.35
2023-03-26T07:57:43.757Z,85.55
2023-03-26T07:58:43.896Z,85.66
2023-03-26T07:59:43.758Z,85.46
2023-03-26T08:00:43.757Z,85.46
2023-03-26T08:01:43.710Z,85.46
2023-03-26T08:02:43.778Z,85.76
2023-03-26T08:03:43.720Z,85.35
2023-03-26T08:04:43.832Z,85.62
2023-03-26T08:05:43.661Z,85.62
2023-03-26T08:06:43.653Z,84.90
2023-03-26T08:07:43.653Z,84.59
2023-03-26T08:08:43.628Z,84.49
2023-03-26T08:09:43.632Z,84.39
2023-03-26T08:10:43.603Z,84.14
2023-03-26T08:11:43.614Z,83.87
2023-03-26T08:12:43.897Z,83.98
2023-03-26T08:13:43.586Z,83.98
2023-03-26T08:14:43.598Z,84.08
2023-03-26T08:15:43.603Z,83.87
2023-03-26T08:16:43.547Z,84.28
2023-03-26T08:17:43.585Z,84.69
2023-03-26T08:18:43.528Z,84.53
2023-03-26T08:19:43.524Z,84.28
2023-03-26T08:20:43.536Z,84.49
2023-03-26T08:21:43.494Z,84.80
2023-03-26T08:22:43.511Z,84.59
2023-03-26T08:23:50.330Z,84.86
2023-03-26T08:24:44.591Z,84.45
2023-03-26T08:25:43.517Z,84.34
2023-03-26T08:26:43.449Z,84.34
2023-03-26T08:27:43.457Z,84.25
2023-03-26T08:28:43.426Z,84.10
2023-03-26T08:29:44.433Z,84.04
2023-03-26T08:30:43.431Z,83.63
2023-03-26T08:31:43.396Z,83.69
2023-03-26T08:32:43.402Z,83.69
2023-03-26T08:33:43.394Z,83.28
2023-03-26T08:34:43.391Z,83.28
2023-03-26T08:35:43.388Z,83.28
2023-03-26T08:36:43.343Z,82.77
2023-03-26T08:37:43.344Z,82.77
2023-03-26T08:38:45.048Z,83.07
2023-03-26T08:39:43.347Z,82.36
2023-03-26T08:40:43.324Z,82.77
2023-03-26T08:41:43.324Z,81.74
2023-03-26T08:42:43.295Z,81.95
2023-03-26T08:43:43.283Z,82.67
2023-03-26T08:44:43.294Z,82.05
2023-03-26T08:45:43.297Z,82.46
2023-03-26T08:46:43.291Z,82.42
2023-03-26T08:47:43.280Z,81.60
2023-03-26T08:48:43.327Z,82.12
2023-03-26T08:49:43.275Z,82.53
2023-03-26T08:50:43.213Z,82.18
2023-03-26T08:51:43.230Z,81.57
2023-03-26T08:52:43.201Z,81.87
2023-03-26T08:53:43.185Z,82.08
2023-03-26T08:54:43.197Z,81.77
2023-03-26T08:55:43.171Z,81.50
2023-03-26T08:56:43.175Z,81.26
2023-03-26T08:57:43.144Z,82.12
2023-03-26T08:58:43.131Z,82.12
2023-03-26T08:59:43.195Z,80.95
2023-03-26T09:00:43.136Z,80.99
2023-03-26T09:01:43.213Z,81.20
2023-03-26T09:02:43.135Z,81.09
2023-03-26T09:03:43.122Z,81.09
2023-03-26T09:04:43.098Z,81.15
2023-03-26T09:05:43.078Z,81.40
2023-03-26T09:06:43.060Z,81.26
2023-03-26T09:07:43.050Z,81.77
2023-03-26T09:08:53.693Z,81.57
2023-03-26T09:09:44.054Z,80.85
2023-03-26T09:10:43.028Z,82.18
2023-03-26T09:11:43.016Z,80.95
2023-03-26T09:12:43.004Z,81.67
2023-03-26T09:13:42.997Z,81.98
2023-03-26T09:14:43.003Z,81.22
2023-03-26T09:15:42.974Z,81.15
2023-03-26T09:16:43.090Z,81.01
2023-03-26T09:17:42.978Z,81.22
2023-03-26T09:18:43.932Z,81.32
2023-03-26T09:19:42.968Z,81.26
2023-03-26T09:20:42.931Z,80.95
2023-03-26T09:21:42.914Z,81.94
2023-03-26T09:22:42.904Z,81.84
2023-03-26T09:23:42.888Z,81.63
2023-03-26T09:24:42.894Z,81.26
2023-03-26T09:25:42.901Z,82.08
2023-03-26T09:26:42.860Z,81.57
2023-03-26T09:27:42.859Z,81.67
2023-03-26T09:28:42.860Z,81.29
2023-03-26T09:29:42.887Z,81.15
2023-03-26T09:30:42.830Z,81.77
2023-03-26T09:31:42.891Z,81.57
2023-03-26T09:32:42.844Z,81.36
2023-03-26T09:33:42.806Z,81.36
2023-03-26T09:34:42.804Z,81.57
2023-03-26T09:35:42.800Z,82.08
2023-03-26T09:36:42.770Z,81.67
2023-03-26T09:37:56.211Z,81.77
2023-03-26T09:38:43.762Z,81.46
2023-03-26T09:39:42.750Z,82.18
2023-03-26T09:40:42.728Z,82.39
2023-03-26T09:41:42.730Z,82.59
2023-03-26T09:42:42.703Z,82.18
2023-03-26T09:43:42.729Z,82.90
2023-03-26T09:44:42.712Z,82.49
2023-03-26T09:45:42.699Z,83.10
2023-03-26T09:46:42.893Z,82.76
2023-03-26T09:47:42.711Z,83.00
2023-03-26T09:48:42.664Z,83.10
2023-03-26T09:49:42.811Z,83.17
2023-03-26T09:50:42.624Z,83.27
2023-03-26T09:51:42.620Z,82.59
2023-03-26T09:52:42.613Z,83.31
2023-03-26T09:53:42.592Z,83.20
2023-03-26T09:54:42.623Z,83.27
2023-03-26T09:55:42.579Z,84.09
2023-03-26T09:56:42.586Z,83.88
2023-03-26T09:57:42.608Z,83.92
2023-03-26T09:58:42.552Z,84.03
2023-03-26T09:59:42.544Z,83.82
2023-03-26T10:00:42.598Z,83.61
2023-03-26T10:01:42.539Z,83.78
2023-03-26T10:02:45.987Z,83.72
2023-03-26T10:03:43.495Z,83.98
2023-03-26T10:04:42.521Z,83.51
2023-03-26T10:05:42.473Z,83.72
2023-03-26T10:06:42.473Z,83.88
2023-03-26T10:07:42.441Z,83.82
2023-03-26T10:08:42.436Z,84.23
2023-03-26T10:09:42.426Z,84.53
2023-03-26T10:10:42.431Z,84.60
2023-03-26T10:11:42.420Z,85.52
2023-03-26T10:12:42.407Z,85.48
2023-03-26T10:13:42.390Z,84.39
2023-03-26T10:14:42.425Z,84.15
2023-03-26T10:15:42.424Z,83.58
2023-03-26T10:16:42.446Z,83.98
2023-03-26T10:17:42.413Z,83.58
2023-03-26T10:18:42.337Z,83.98
2023-03-26T10:19:42.333Z,84.12
2023-03-26T10:20:42.385Z,84.12
2023-03-26T10:21:42.331Z,84.19
2023-03-26T10:22:42.297Z,83.88
2023-03-26T10:23:42.284Z,83.78
2023-03-26T10:24:42.287Z,83.82
2023-03-26T10:25:42.300Z,83.96
2023-03-26T10:26:42.265Z,84.47
2023-03-26T10:27:43.278Z,85.30
2023-03-26T10:28:42.274Z,85.50
2023-03-26T10:29:42.235Z,85.19
2023-03-26T10:30:42.248Z,85.30
2023-03-26T10:31:42.202Z,85.15
2023-03-26T10:32:42.203Z,85.56
2023-03-26T10:34:55.614Z,85.15
2023-03-26T10:35:55.630Z,85.15
2023-03-26T10:36:55.592Z,85.01
2023-03-26T10:37:55.572Z,85.31
2023-03-26T10:38:55.587Z,85.31
2023-03-26T10:39:55.564Z,85.31
2023-03-26T10:40:55.808Z,85.22
2023-03-26T10:41:55.533Z,85.52
2023-03-26T10:42:55.529Z,85.42
2023-03-26T10:44:07.263Z,85.42
2023-03-26T10:44:56.497Z,85.52
2023-03-26T10:45:55.522Z,85.77
2023-03-26T10:46:55.474Z,85.87
2023-03-26T10:47:55.500Z,85.87
2023-03-26T10:48:55.488Z,86.24
2023-03-26T10:49:55.445Z,86.07
2023-03-26T10:50:55.748Z,85.66
2023-03-26T10:51:55.442Z,85.87
2023-03-26T10:52:55.419Z,85.77
2023-03-26T10:53:56.538Z,85.77
2023-03-26T10:54:56.524Z,85.77
2023-03-26T10:55:56.523Z,85.72
2023-03-26T10:56:56.596Z,86.34
2023-03-26T10:57:56.497Z,86.44
2023-03-26T10:58:56.517Z,86.24
2023-03-26T10:59:56.478Z,86.14
2023-03-26T11:00:56.663Z,86.20
2023-03-26T11:01:56.475Z,86.40
2023-03-26T11:02:56.459Z,86.20
2023-03-26T11:03:56.458Z,86.10
2023-03-26T11:04:56.435Z,86.91
2023-03-26T11:05:56.494Z,86.51
2023-03-26T11:06:56.401Z,86.20
2023-03-26T11:07:56.380Z,86.34
2023-03-26T11:08:56.406Z,86.10
2023-03-26T11:09:56.367Z,86.44
2023-03-26T11:10:56.535Z,86.38
2023-03-26T11:11:56.354Z,86.14
2023-03-26T11:12:56.338Z,86.65
2023-03-26T11:13:56.338Z,86.58
2023-03-26T11:14:56.325Z,86.48
2023-03-26T11:15:56.361Z,86.58
2023-03-26T11:16:56.300Z,86.48
2023-03-26T11:17:56.354Z,86.69
2023-03-26T11:18:56.283Z,86.48
2023-03-26T11:19:56.275Z,86.38
2023-03-26T11:20:56.633Z,87.20
2023-03-26T11:21:57.245Z,87.14
2023-03-26T11:22:56.232Z,87.10
2023-03-26T11:24:04.470Z,87.20
2023-03-26T11:24:57.220Z,86.48
2023-03-26T11:25:56.225Z,87.10
2023-03-26T11:26:56.200Z,87.51
2023-03-26T11:27:56.200Z,87.20
2023-03-26T11:29:03.680Z,87.14
2023-03-26T11:29:57.167Z,87.34
2023-03-26T11:30:56.476Z,87.14
2023-03-26T11:31:56.152Z,86.98
2023-03-26T11:32:56.161Z,87.79
2023-03-26T11:33:56.130Z,87.28
2023-03-26T11:34:56.132Z,87.94
2023-03-26T11:35:56.181Z,87.73
2023-03-26T11:36:56.109Z,88.39
2023-03-26T11:37:56.094Z,87.88
2023-03-26T11:38:56.085Z,87.04
2023-03-26T11:39:56.665Z,86.93
2023-03-26T11:40:57.391Z,87.34
2023-03-26T11:41:56.060Z,87.24
2023-03-26T11:42:56.045Z,87.13
2023-03-26T11:43:56.042Z,86.89
2023-03-26T11:44:56.032Z,87.10
2023-03-26T11:45:56.030Z,87.20
2023-03-26T11:46:56.084Z,87.30
2023-03-26T11:47:56.044Z,87.30
2023-03-26T11:48:55.991Z,87.51
2023-03-26T11:49:55.993Z,87.92
2023-03-26T11:50:56.230Z,87.92
2023-03-26T11:51:55.988Z,87.61
2023-03-26T11:52:55.943Z,87.88
2023-03-26T11:53:55.946Z,87.88
2023-03-26T11:54:55.933Z,88.02
2023-03-26T11:55:56.010Z,88.02
2023-03-26T11:57:05.968Z,87.98
2023-03-26T11:57:57.819Z,87.57
2023-03-26T11:58:55.885Z,87.98
2023-03-26T11:59:57.697Z,87.92
2023-03-26T12:00:57.086Z,88.23
2023-03-26T12:01:55.913Z,88.33
2023-03-26T12:02:55.877Z,88.53
2023-03-26T12:03:55.842Z,88.74
2023-03-26T12:04:55.885Z,88.78
2023-03-26T12:05:55.845Z,88.78
2023-03-26T12:06:55.804Z,88.82
2023-03-26T12:07:55.780Z,88.56
2023-03-26T12:08:55.781Z,88.14
2023-03-26T12:09:55.778Z,87.57
2023-03-26T12:10:55.970Z,86.54
2023-03-26T12:11:55.750Z,86.06
2023-03-26T12:12:55.737Z,86.10
2023-03-26T12:13:55.726Z,86.41
2023-03-26T12:14:55.719Z,86.52
2023-03-26T12:15:55.829Z,86.99
2023-03-26T12:16:57.071Z,86.93
2023-03-26T12:17:55.753Z,87.19
2023-03-26T12:18:55.715Z,87.44
2023-03-26T12:19:55.728Z,87.85
2023-03-26T12:20:55.940Z,87.54
2023-03-26T12:21:55.665Z,87.44
2023-03-26T12:22:55.635Z,87.24
2023-03-26T12:23:55.626Z,87.65
2023-03-26T12:24:55.619Z,87.44
2023-03-26T12:25:55.636Z,87.90
2023-03-26T12:26:55.605Z,87.69
2023-03-26T12:27:55.606Z,87.54
2023-03-26T12:28:55.593Z,87.65
2023-03-26T12:29:55.572Z,88.17
2023-03-26T12:30:55.712Z,88.26
2023-03-26T12:31:55.639Z,88.26
2023-03-26T12:32:55.633Z,88.02
2023-03-26T12:33:56.614Z,88.37
2023-03-26T12:34:55.530Z,88.26
2023-03-26T12:35:55.541Z,88.43
2023-03-26T12:36:55.534Z,87.92
2023-03-26T12:37:55.493Z,88.02
2023-03-26T12:39:42.985Z,88.23
2023-03-26T12:40:09.044Z,88.64
2023-03-26T12:40:56.569Z,88.74
2023-03-26T12:44:42.025Z,88.74
2023-03-26T12:44:51.385Z,89.05
2023-03-26T12:44:54.825Z,88.95
2023-03-26T12:44:58.891Z,89.05
2023-03-26T12:47:46.216Z,88.53
2023-03-26T12:47:57.522Z,89.05
2023-03-26T12:48:03.495Z,89.19
2023-03-26T12:48:56.473Z,89.05
2023-03-26T12:49:55.389Z,89.56
2023-03-26T12:50:55.626Z,89.36
2023-03-26T12:51:55.437Z,89.36
2023-03-26T12:52:56.345Z,89.52
2023-03-26T12:53:55.360Z,89.52